sensor_id;sensor_type;location;lat;lon;timestamp;pressure;altitude;pressure_sealevel;temperature;humidity
64544;BME280;50936;51.660;5.616;2023-10-19T00:03:06;98926.25;;;25.32;40.76
64544;BME280;50936;51.660;5.616;2023-10-19T00:05:55;98912.63;;;25.43;40.62
64544;BME280;50936;51.660;5.616;2023-10-19T00:08:43;98913.53;;;25.48;40.73
64544;BME280;50936;51.660;5.616;2023-10-19T00:11:30;98915.63;;;25.58;40.55
64544;BME280;50936;51.660;5.616;2023-10-19T00:14:18;98914.09;;;25.67;40.28
64544;BME280;50936;51.660;5.616;2023-10-19T00:17:05;98918.38;;;25.75;40.31
64544;BME280;50936;51.660;5.616;2023-10-19T00:19:57;98920.38;;;25.80;40.30
64544;BME280;50936;51.660;5.616;2023-10-19T00:22:53;98912.69;;;25.82;40.09
64544;BME280;50936;51.660;5.616;2023-10-19T00:25:40;98915.78;;;25.85;40.07
64544;BME280;50936;51.660;5.616;2023-10-19T00:28:28;98926.59;;;25.87;40.07
64544;BME280;50936;51.660;5.616;2023-10-19T00:31:15;98933.78;;;25.88;39.94
64544;BME280;50936;51.660;5.616;2023-10-19T00:34:03;98936.66;;;25.93;39.84
64544;BME280;50936;51.660;5.616;2023-10-19T00:36:51;98931.44;;;25.97;39.57
64544;BME280;50936;51.660;5.616;2023-10-19T00:39:38;98933.13;;;25.98;39.83
64544;BME280;50936;51.660;5.616;2023-10-19T00:42:37;98919.06;;;25.99;39.70
64544;BME280;50936;51.660;5.616;2023-10-19T00:45:31;98926.91;;;26.07;39.78
64544;BME280;50936;51.660;5.616;2023-10-19T00:48:20;98918.09;;;26.10;39.56
64544;BME280;50936;51.660;5.616;2023-10-19T00:51:14;98919.84;;;26.17;39.40
64544;BME280;50936;51.660;5.616;2023-10-19T00:54:17;98909.34;;;26.19;39.63
64544;BME280;50936;51.660;5.616;2023-10-19T00:57:22;98909.19;;;26.25;39.41
64544;BME280;50936;51.660;5.616;2023-10-19T01:00:20;98914.78;;;26.30;39.43
64544;BME280;50936;51.660;5.616;2023-10-19T01:03:18;98912.91;;;26.36;39.30
64544;BME280;50936;51.660;5.616;2023-10-19T01:06:06;98903.50;;;26.37;39.21
64544;BME280;50936;51.660;5.616;2023-10-19T01:08:56;98899.66;;;26.38;39.07
64544;BME280;50936;51.660;5.616;2023-10-19T01:11:44;98892.97;;;26.34;39.21
64544;BME280;50936;51.660;5.616;2023-10-19T01:14:32;98897.41;;;26.35;39.12
64544;BME280;50936;51.660;5.616;2023-10-19T01:17:21;98897.66;;;26.34;39.15
64544;BME280;50936;51.660;5.616;2023-10-19T01:20:15;98900.66;;;26.32;38.87
64544;BME280;50936;51.660;5.616;2023-10-19T01:23:10;98896.81;;;26.33;39.12
64544;BME280;50936;51.660;5.616;2023-10-19T01:25:59;98906.19;;;26.32;39.19
64544;BME280;50936;51.660;5.616;2023-10-19T01:28:46;98901.28;;;26.34;39.16
64544;BME280;50936;51.660;5.616;2023-10-19T01:31:35;98899.34;;;26.35;39.09
64544;BME280;50936;51.660;5.616;2023-10-19T01:34:26;98903.50;;;26.37;39.05
64544;BME280;50936;51.660;5.616;2023-10-19T01:37:14;98894.13;;;26.38;39.34
64544;BME280;50936;51.660;5.616;2023-10-19T01:40:01;98885.56;;;26.40;39.08
64544;BME280;50936;51.660;5.616;2023-10-19T01:42:48;98880.03;;;26.40;38.99
64544;BME280;50936;51.660;5.616;2023-10-19T01:45:35;98881.94;;;26.39;39.32
64544;BME280;50936;51.660;5.616;2023-10-19T01:48:22;98882.00;;;26.44;39.11
64544;BME280;50936;51.660;5.616;2023-10-19T01:51:21;98875.13;;;26.47;39.25
64544;BME280;50936;51.660;5.616;2023-10-19T01:54:10;98877.63;;;26.48;39.14
64544;BME280;50936;51.660;5.616;2023-10-19T01:56:58;98884.34;;;26.53;39.09
64544;BME280;50936;51.660;5.616;2023-10-19T01:59:45;98884.34;;;26.53;39.08
64544;BME280;50936;51.660;5.616;2023-10-19T02:02:32;98885.47;;;26.57;39.06
64544;BME280;50936;51.660;5.616;2023-10-19T02:05:19;98878.81;;;26.58;39.01
64544;BME280;50936;51.660;5.616;2023-10-19T02:08:09;98873.91;;;26.60;38.96
64544;BME280;50936;51.660;5.616;2023-10-19T02:10:56;98874.56;;;26.67;39.03
64544;BME280;50936;51.660;5.616;2023-10-19T02:13:45;98878.53;;;26.76;38.96
64544;BME280;50936;51.660;5.616;2023-10-19T02:16:33;98878.63;;;26.86;38.85
64544;BME280;50936;51.660;5.616;2023-10-19T02:19:24;98877.59;;;26.93;38.66
64544;BME280;50936;51.660;5.616;2023-10-19T02:22:13;98879.00;;;26.95;38.59
64544;BME280;50936;51.660;5.616;2023-10-19T02:25:00;98870.94;;;26.94;38.53
64544;BME280;50936;51.660;5.616;2023-10-19T02:27:47;98875.91;;;26.92;38.70
64544;BME280;50936;51.660;5.616;2023-10-19T02:30:35;98872.56;;;26.89;38.57
64544;BME280;50936;51.660;5.616;2023-10-19T02:33:22;98876.97;;;26.85;38.50
64544;BME280;50936;51.660;5.616;2023-10-19T02:36:09;98876.91;;;26.80;38.45
64544;BME280;50936;51.660;5.616;2023-10-19T02:39:01;98872.13;;;26.76;38.50
64544;BME280;50936;51.660;5.616;2023-10-19T02:41:54;98873.25;;;26.75;38.60
64544;BME280;50936;51.660;5.616;2023-10-19T02:44:42;98871.00;;;26.72;38.74
64544;BME280;50936;51.660;5.616;2023-10-19T02:47:30;98867.34;;;26.66;38.83
64544;BME280;50936;51.660;5.616;2023-10-19T02:50:17;98861.13;;;26.59;38.76
64544;BME280;50936;51.660;5.616;2023-10-19T02:53:09;98866.66;;;26.59;38.78
64544;BME280;50936;51.660;5.616;2023-10-19T02:56:09;98861.66;;;26.56;39.02
64544;BME280;50936;51.660;5.616;2023-10-19T02:58:57;98863.59;;;26.55;39.19
64544;BME280;50936;51.660;5.616;2023-10-19T03:01:56;98863.00;;;26.53;39.03
64544;BME280;50936;51.660;5.616;2023-10-19T03:04:49;98863.84;;;26.54;39.15
64544;BME280;50936;51.660;5.616;2023-10-19T03:07:36;98862.19;;;26.53;39.21
64544;BME280;50936;51.660;5.616;2023-10-19T03:10:25;98862.19;;;26.53;39.27
64544;BME280;50936;51.660;5.616;2023-10-19T03:13:29;98862.19;;;26.53;39.21
64544;BME280;50936;51.660;5.616;2023-10-19T03:16:18;98864.38;;;26.50;39.41
64544;BME280;50936;51.660;5.616;2023-10-19T03:19:07;98857.66;;;26.46;39.28
64544;BME280;50936;51.660;5.616;2023-10-19T03:21:54;98857.66;;;26.46;39.25
64544;BME280;50936;51.660;5.616;2023-10-19T03:24:43;98860.44;;;26.46;39.26
64544;BME280;50936;51.660;5.616;2023-10-19T03:27:30;98861.53;;;26.45;39.62
64544;BME280;50936;51.660;5.616;2023-10-19T03:30:18;98856.00;;;26.45;39.42
64544;BME280;50936;51.660;5.616;2023-10-19T03:33:07;98857.66;;;26.46;39.58
64544;BME280;50936;51.660;5.616;2023-10-19T03:35:56;98850.47;;;26.45;39.70
64544;BME280;50936;51.660;5.616;2023-10-19T03:38:43;98850.53;;;26.50;39.40
64544;BME280;50936;51.660;5.616;2023-10-19T03:41:31;98846.66;;;26.51;39.49
64544;BME280;50936;51.660;5.616;2023-10-19T03:44:22;98838.88;;;26.48;39.63
64544;BME280;50936;51.660;5.616;2023-10-19T03:47:09;98838.88;;;26.48;39.44
64544;BME280;50936;51.660;5.616;2023-10-19T03:50:01;98841.91;;;26.47;39.63
64544;BME280;50936;51.660;5.616;2023-10-19T03:52:53;98839.16;;;26.47;39.63
64544;BME280;50936;51.660;5.616;2023-10-19T03:55:41;98837.72;;;26.44;39.47
64544;BME280;50936;51.660;5.616;2023-10-19T03:58:30;98833.88;;;26.45;39.50
64544;BME280;50936;51.660;5.616;2023-10-19T04:01:18;98831.69;;;26.47;39.65
64544;BME280;50936;51.660;5.616;2023-10-19T04:04:06;98827.28;;;26.51;39.56
64544;BME280;50936;51.660;5.616;2023-10-19T04:06:56;98828.44;;;26.56;39.68
64544;BME280;50936;51.660;5.616;2023-10-19T04:09:46;98828.59;;;26.66;39.55
64544;BME280;50936;51.660;5.616;2023-10-19T04:12:44;98817.88;;;26.75;39.32
64544;BME280;50936;51.660;5.616;2023-10-19T04:15:31;98819.91;;;26.84;39.51
64544;BME280;50936;51.660;5.616;2023-10-19T04:18:21;98818.22;;;26.83;39.44
64544;BME280;50936;51.660;5.616;2023-10-19T04:21:09;98812.66;;;26.83;39.47
64544;BME280;50936;51.660;5.616;2023-10-19T04:23:56;98816.03;;;26.85;39.45
64544;BME280;50936;51.660;5.616;2023-10-19T04:26:43;98821.28;;;26.87;39.52
64544;BME280;50936;51.660;5.616;2023-10-19T04:29:30;98824.38;;;26.91;39.48
64544;BME280;50936;51.660;5.616;2023-10-19T04:32:18;98822.19;;;26.93;39.33
64544;BME280;50936;51.660;5.616;2023-10-19T04:35:17;98820.00;;;26.95;39.42
64544;BME280;50936;51.660;5.616;2023-10-19T04:38:11;98823.84;;;26.94;39.46
64544;BME280;50936;51.660;5.616;2023-10-19T04:41:08;98822.19;;;26.93;39.52
64544;BME280;50936;51.660;5.616;2023-10-19T04:43:56;98817.81;;;26.97;39.34
64544;BME280;50936;51.660;5.616;2023-10-19T04:46:45;98820.00;;;26.95;39.34
64544;BME280;50936;51.660;5.616;2023-10-19T04:49:33;98814.16;;;26.96;39.39
64544;BME280;50936;51.660;5.616;2023-10-19T04:52:20;98813.09;;;26.97;39.45
64544;BME280;50936;51.660;5.616;2023-10-19T04:55:08;98817.25;;;27.00;39.32
64544;BME280;50936;51.660;5.616;2023-10-19T04:57:55;98825.84;;;26.98;39.30
64544;BME280;50936;51.660;5.616;2023-10-19T05:00:43;98826.09;;;26.97;39.33
64544;BME280;50936;51.660;5.616;2023-10-19T05:03:31;98828.88;;;26.97;39.38
64544;BME280;50936;51.660;5.616;2023-10-19T05:06:18;98832.16;;;26.94;39.40
64544;BME280;50936;51.660;5.616;2023-10-19T05:09:05;98827.75;;;26.93;39.20
64544;BME280;50936;51.660;5.616;2023-10-19T05:11:52;98829.34;;;26.88;39.38
64544;BME280;50936;51.660;5.616;2023-10-19T05:14:41;98834.31;;;26.86;39.43
64544;BME280;50936;51.660;5.616;2023-10-19T05:17:30;98842.88;;;26.85;39.66
64544;BME280;50936;51.660;5.616;2023-10-19T05:20:17;98838.72;;;26.82;39.45
64544;BME280;50936;51.660;5.616;2023-10-19T05:23:14;98835.56;;;26.74;39.68
64544;BME280;50936;51.660;5.616;2023-10-19T05:26:03;98838.09;;;26.75;39.75
64544;BME280;50936;51.660;5.616;2023-10-19T05:28:53;98837.25;;;26.75;39.79
64544;BME280;50936;51.660;5.616;2023-10-19T05:31:41;98841.94;;;26.74;39.84
64544;BME280;50936;51.660;5.616;2023-10-19T05:34:29;98840.28;;;26.73;39.83
64544;BME280;50936;51.660;5.616;2023-10-19T05:37:19;98843.56;;;26.70;39.97
64544;BME280;50936;51.660;5.616;2023-10-19T05:40:07;98837.47;;;26.68;39.99
64544;BME280;50936;51.660;5.616;2023-10-19T05:42:59;98845.19;;;26.66;40.10
64544;BME280;50936;51.660;5.616;2023-10-19T05:45:48;98842.69;;;26.64;40.42
64544;BME280;50936;51.660;5.616;2023-10-19T05:48:37;98839.59;;;26.61;40.31
64544;BME280;50936;51.660;5.616;2023-10-19T05:51:24;98847.91;;;26.61;40.30
64544;BME280;50936;51.660;5.616;2023-10-19T05:54:12;98850.91;;;26.59;40.43
64544;BME280;50936;51.660;5.616;2023-10-19T05:56:59;98852.25;;;26.57;40.54
64544;BME280;50936;51.660;5.616;2023-10-19T05:59:46;98851.13;;;26.53;40.71
64544;BME280;50936;51.660;5.616;2023-10-19T06:02:34;98856.06;;;26.50;40.68
64544;BME280;50936;51.660;5.616;2023-10-19T06:05:22;98861.00;;;26.48;40.70
64544;BME280;50936;51.660;5.616;2023-10-19T06:08:10;98862.38;;;26.46;40.92
64544;BME280;50936;51.660;5.616;2023-10-19T06:10:58;98863.75;;;26.43;40.97
64544;BME280;50936;51.660;5.616;2023-10-19T06:13:45;98862.06;;;26.42;40.78
64544;BME280;50936;51.660;5.616;2023-10-19T06:16:33;98864.75;;;26.37;40.84
64544;BME280;50936;51.660;5.616;2023-10-19T06:19:21;98863.09;;;26.36;41.08
64544;BME280;50936;51.660;5.616;2023-10-19T06:22:09;98860.59;;;26.35;40.93
64544;BME280;50936;51.660;5.616;2023-10-19T06:24:56;98870.22;;;26.32;41.17
64544;BME280;50936;51.660;5.616;2023-10-19T06:27:45;98876.03;;;26.30;41.32
64544;BME280;50936;51.660;5.616;2023-10-19T06:30:33;98871.28;;;26.26;41.16
64544;BME280;50936;51.660;5.616;2023-10-19T06:33:20;98870.19;;;26.27;41.03
64544;BME280;50936;51.660;5.616;2023-10-19T06:36:10;98870.69;;;26.24;41.50
64544;BME280;50936;51.660;5.616;2023-10-19T06:38:57;98868.44;;;26.21;41.49
64544;BME280;50936;51.660;5.616;2023-10-19T06:41:44;98869.22;;;26.16;41.52
64544;BME280;50936;51.660;5.616;2023-10-19T06:44:31;98877.75;;;26.15;41.55
64544;BME280;50936;51.660;5.616;2023-10-19T06:47:19;98877.75;;;26.15;41.63
64544;BME280;50936;51.660;5.616;2023-10-19T06:50:07;98878.28;;;26.11;41.74
64544;BME280;50936;51.660;5.616;2023-10-19T06:52:56;98886.00;;;26.09;41.62
64544;BME280;50936;51.660;5.616;2023-10-19T06:55:44;98883.22;;;26.09;41.92
64544;BME280;50936;51.660;5.616;2023-10-19T06:58:31;98882.31;;;26.04;41.85
64544;BME280;50936;51.660;5.616;2023-10-19T07:01:18;98889.78;;;26.03;42.00
64544;BME280;50936;51.660;5.616;2023-10-19T07:04:10;98883.09;;;25.99;42.01
64544;BME280;50936;51.660;5.616;2023-10-19T07:06:58;98884.75;;;26.00;42.15
64544;BME280;50936;51.660;5.616;2023-10-19T07:09:45;98879.22;;;26.00;41.97
64544;BME280;50936;51.660;5.616;2023-10-19T07:12:33;98891.97;;;26.01;42.07
64544;BME280;50936;51.660;5.616;2023-10-19T07:15:21;98900.28;;;26.01;42.04
64544;BME280;50936;51.660;5.616;2023-10-19T07:18:13;98904.44;;;26.04;41.96
64544;BME280;50936;51.660;5.616;2023-10-19T07:21:03;98902.75;;;26.03;42.10
64544;BME280;50936;51.660;5.616;2023-10-19T07:23:51;98909.72;;;26.05;41.84
64544;BME280;50936;51.660;5.616;2023-10-19T07:26:40;98908.63;;;26.06;42.22
64544;BME280;50936;51.660;5.616;2023-10-19T07:29:40;98900.94;;;26.08;42.04
64544;BME280;50936;51.660;5.616;2023-10-19T07:32:30;98905.59;;;26.08;42.02
64544;BME280;50936;51.660;5.616;2023-10-19T07:35:18;98904.78;;;26.07;42.00
64544;BME280;50936;51.660;5.616;2023-10-19T07:38:06;98905.59;;;26.08;42.09
64544;BME280;50936;51.660;5.616;2023-10-19T07:40:54;98904.28;;;26.10;41.88
64544;BME280;50936;51.660;5.616;2023-10-19T07:43:41;98904.28;;;26.10;41.83
64544;BME280;50936;51.660;5.616;2023-10-19T07:46:30;98905.94;;;26.11;42.05
64544;BME280;50936;51.660;5.616;2023-10-19T07:49:18;98905.94;;;26.11;41.98
64544;BME280;50936;51.660;5.616;2023-10-19T07:52:07;98888.75;;;26.09;41.93
64544;BME280;50936;51.660;5.616;2023-10-19T07:54:54;98886.56;;;26.11;41.85
64544;BME280;50936;51.660;5.616;2023-10-19T07:57:44;98891.53;;;26.09;41.83
64544;BME280;50936;51.660;5.616;2023-10-19T08:00:32;98896.66;;;26.23;41.57
64544;BME280;50936;51.660;5.616;2023-10-19T08:03:22;98897.72;;;26.17;41.75
64544;BME280;50936;51.660;5.616;2023-10-19T08:06:09;98894.38;;;26.15;41.99
64544;BME280;50936;51.660;5.616;2023-10-19T08:08:57;98884.66;;;26.12;41.92
64544;BME280;50936;51.660;5.616;2023-10-19T08:11:44;98889.34;;;26.11;42.15
64544;BME280;50936;51.660;5.616;2023-10-19T08:14:32;98882.16;;;26.10;41.99
64544;BME280;50936;51.660;5.616;2023-10-19T08:17:20;98878.28;;;26.11;41.85
64544;BME280;50936;51.660;5.616;2023-10-19T08:20:09;98881.28;;;26.10;41.98
64544;BME280;50936;51.660;5.616;2023-10-19T08:23:03;98872.16;;;26.09;41.98
64544;BME280;50936;51.660;5.616;2023-10-19T08:25:52;98872.16;;;26.09;41.97
64544;BME280;50936;51.660;5.616;2023-10-19T08:28:42;98868.56;;;26.09;41.95
64544;BME280;50936;51.660;5.616;2023-10-19T08:31:30;98865.81;;;26.09;42.02
64544;BME280;50936;51.660;5.616;2023-10-19T08:34:18;98875.75;;;26.10;41.77
64544;BME280;50936;51.660;5.616;2023-10-19T08:37:07;98873.28;;;26.08;42.04
64544;BME280;50936;51.660;5.616;2023-10-19T08:39:54;98873.28;;;26.08;41.88
64544;BME280;50936;51.660;5.616;2023-10-19T08:42:45;98862.22;;;26.08;41.79
64544;BME280;50936;51.660;5.616;2023-10-19T08:45:34;98869.66;;;26.08;41.82
64544;BME280;50936;51.660;5.616;2023-10-19T08:48:22;98867.75;;;26.08;41.76
64544;BME280;50936;51.660;5.616;2023-10-19T08:51:10;98866.88;;;26.08;41.78
64544;BME280;50936;51.660;5.616;2023-10-19T08:53:58;98860.53;;;26.07;41.84
64544;BME280;50936;51.660;5.616;2023-10-19T08:56:45;98857.75;;;26.07;41.76
64544;BME280;50936;51.660;5.616;2023-10-19T08:59:34;98859.94;;;26.05;42.04
64544;BME280;50936;51.660;5.616;2023-10-19T09:02:21;98855.56;;;26.09;41.95
64544;BME280;50936;51.660;5.616;2023-10-19T09:05:08;98852.81;;;26.09;41.81
64544;BME280;50936;51.660;5.616;2023-10-19T09:07:56;98862.78;;;26.10;41.90
64544;BME280;50936;51.660;5.616;2023-10-19T09:10:44;98860.84;;;26.11;42.06
64544;BME280;50936;51.660;5.616;2023-10-19T09:13:46;98859.16;;;26.10;42.17
64544;BME280;50936;51.660;5.616;2023-10-19T09:16:35;98860.59;;;26.12;42.07
64544;BME280;50936;51.660;5.616;2023-10-19T09:19:38;98850.09;;;26.15;41.95
64544;BME280;50936;51.660;5.616;2023-10-19T09:22:35;98852.94;;;26.20;41.96
64544;BME280;50936;51.660;5.616;2023-10-19T09:25:24;98855.25;;;26.28;41.89
64544;BME280;50936;51.660;5.616;2023-10-19T09:28:11;98856.94;;;26.29;41.86
64544;BME280;50936;51.660;5.616;2023-10-19T09:31:00;98845.84;;;26.29;41.62
64544;BME280;50936;51.660;5.616;2023-10-19T09:33:48;98832.59;;;26.31;41.84
64544;BME280;50936;51.660;5.616;2023-10-19T09:36:41;98845.31;;;26.32;41.77
64544;BME280;50936;51.660;5.616;2023-10-19T09:39:30;98842.31;;;26.34;41.58
64544;BME280;50936;51.660;5.616;2023-10-19T09:42:24;98837.88;;;26.33;41.77
64544;BME280;50936;51.660;5.616;2023-10-19T09:45:19;98832.59;;;26.31;41.70
64544;BME280;50936;51.660;5.616;2023-10-19T09:48:07;98839.22;;;26.30;41.58
64544;BME280;50936;51.660;5.616;2023-10-19T09:50:55;98842.56;;;26.32;41.85
64544;BME280;50936;51.660;5.616;2023-10-19T09:53:47;98852.09;;;26.41;41.56
64544;BME280;50936;51.660;5.616;2023-10-19T09:56:41;98849.53;;;26.35;41.58
64544;BME280;50936;51.660;5.616;2023-10-19T09:59:38;98840.31;;;26.29;41.58
64544;BME280;50936;51.660;5.616;2023-10-19T10:02:29;98827.81;;;26.26;41.72
64544;BME280;50936;51.660;5.616;2023-10-19T10:08:32;98836.97;;;26.27;41.67
64544;BME280;50936;51.660;5.616;2023-10-19T10:11:24;98829.44;;;26.22;41.71
64544;BME280;50936;51.660;5.616;2023-10-19T10:14:23;98825.59;;;26.23;41.87
64544;BME280;50936;51.660;5.616;2023-10-19T10:17:17;98820.88;;;26.24;41.65
64544;BME280;50936;51.660;5.616;2023-10-19T10:23:16;98814.53;;;26.23;41.87
64544;BME280;50936;51.660;5.616;2023-10-19T10:26:12;98817.88;;;26.25;41.81
64544;BME280;50936;51.660;5.616;2023-10-19T10:29:22;98810.66;;;26.24;41.74
64544;BME280;50936;51.660;5.616;2023-10-19T10:32:10;98809.25;;;26.22;41.76
64544;BME280;50936;51.660;5.616;2023-10-19T10:34:59;98820.88;;;26.24;41.53
64544;BME280;50936;51.660;5.616;2023-10-19T10:37:55;98823.09;;;26.22;41.92
64544;BME280;50936;51.660;5.616;2023-10-19T10:40:47;98823.09;;;26.22;41.80
64544;BME280;50936;51.660;5.616;2023-10-19T10:43:55;98828.63;;;26.22;41.78
64544;BME280;50936;51.660;5.616;2023-10-19T10:46:44;98819.19;;;26.23;41.65
64544;BME280;50936;51.660;5.616;2023-10-19T10:49:31;98831.97;;;26.24;41.65
64544;BME280;50936;51.660;5.616;2023-10-19T10:52:35;98825.59;;;26.23;41.88
64544;BME280;50936;51.660;5.616;2023-10-19T10:55:24;98820.31;;;26.22;41.65
64544;BME280;50936;51.660;5.616;2023-10-19T10:58:17;98820.16;;;26.34;41.46
64544;BME280;50936;51.660;5.616;2023-10-19T11:01:05;98819.84;;;26.30;41.47
64544;BME280;50936;51.660;5.616;2023-10-19T11:04:11;98815.94;;;26.26;41.95
64544;BME280;50936;51.660;5.616;2023-10-19T11:06:58;98817.03;;;26.25;41.60
64544;BME280;50936;51.660;5.616;2023-10-19T11:09:46;98820.31;;;26.22;41.66
64544;BME280;50936;51.660;5.616;2023-10-19T11:12:35;98812.00;;;26.22;41.99
64544;BME280;50936;51.660;5.616;2023-10-19T11:15:25;98820.31;;;26.22;41.97
64544;BME280;50936;51.660;5.616;2023-10-19T11:18:34;98819.19;;;26.23;41.85
64544;BME280;50936;51.660;5.616;2023-10-19T11:21:22;98811.50;;;26.25;41.77
64544;BME280;50936;51.660;5.616;2023-10-19T11:24:24;98804.28;;;26.24;41.75
64544;BME280;50936;51.660;5.616;2023-10-19T11:27:13;98807.63;;;26.26;41.79
64544;BME280;50936;51.660;5.616;2023-10-19T11:30:13;98804.28;;;26.24;41.79
64544;BME280;50936;51.660;5.616;2023-10-19T11:33:09;98794.03;;;26.24;41.69
64544;BME280;50936;51.660;5.616;2023-10-19T11:35:58;98798.25;;;26.27;41.63
64544;BME280;50936;51.660;5.616;2023-10-19T11:38:46;98789.38;;;26.25;41.74
64544;BME280;50936;51.660;5.616;2023-10-19T11:41:35;98784.91;;;26.24;41.69
64544;BME280;50936;51.660;5.616;2023-10-19T11:44:22;98779.38;;;26.24;41.78
64544;BME280;50936;51.660;5.616;2023-10-19T11:47:09;98782.16;;;26.24;41.78
64544;BME280;50936;51.660;5.616;2023-10-19T11:49:57;98776.63;;;26.24;41.75
64544;BME280;50936;51.660;5.616;2023-10-19T11:52:45;98782.97;;;26.24;41.95
64544;BME280;50936;51.660;5.616;2023-10-19T11:55:33;98763.63;;;26.24;41.74
64544;BME280;50936;51.660;5.616;2023-10-19T11:58:21;98768.31;;;26.24;41.75
64544;BME280;50936;51.660;5.616;2023-10-19T12:01:10;98776.09;;;26.27;41.88
64544;BME280;50936;51.660;5.616;2023-10-19T12:04:00;98765.03;;;26.27;41.79
64544;BME280;50936;51.660;5.616;2023-10-19T12:06:47;98769.22;;;26.29;41.59
64544;BME280;50936;51.660;5.616;2023-10-19T12:09:35;98765.63;;;26.29;41.84
64544;BME280;50936;51.660;5.616;2023-10-19T12:12:22;98765.63;;;26.29;41.72
64544;BME280;50936;51.660;5.616;2023-10-19T12:15:09;98762.53;;;26.25;41.78
64544;BME280;50936;51.660;5.616;2023-10-19T12:17:59;98758.41;;;26.28;41.66
64544;BME280;50936;51.660;5.616;2023-10-19T12:20:47;98759.50;;;26.27;41.54
64544;BME280;50936;51.660;5.616;2023-10-19T12:23:34;98750.63;;;26.25;41.78
64544;BME280;50936;51.660;5.616;2023-10-19T12:26:23;98760.53;;;26.21;41.63
64544;BME280;50936;51.660;5.616;2023-10-19T12:29:11;98761.38;;;26.21;41.63
64544;BME280;50936;51.660;5.616;2023-10-19T12:31:58;98759.44;;;26.22;41.51
64544;BME280;50936;51.660;5.616;2023-10-19T12:34:46;98750.00;;;26.18;41.58
64544;BME280;50936;51.660;5.616;2023-10-19T12:37:34;98746.13;;;26.19;41.85
64544;BME280;50936;51.660;5.616;2023-10-19T12:40:21;98754.16;;;26.20;41.82
64544;BME280;50936;51.660;5.616;2023-10-19T12:43:15;98753.34;;;26.20;41.78
64544;BME280;50936;51.660;5.616;2023-10-19T12:46:05;98752.47;;;26.19;41.86
64544;BME280;50936;51.660;5.616;2023-10-19T12:48:58;98756.63;;;26.17;41.94
64544;BME280;50936;51.660;5.616;2023-10-19T12:51:45;98744.47;;;26.18;41.81
64544;BME280;50936;51.660;5.616;2023-10-19T12:54:34;98745.56;;;26.17;41.86
64544;BME280;50936;51.660;5.616;2023-10-19T12:57:22;98728.97;;;26.17;41.89
64544;BME280;50936;51.660;5.616;2023-10-19T13:00:10;98738.94;;;26.18;41.99
64544;BME280;50936;51.660;5.616;2023-10-19T13:03:11;98740.09;;;26.22;41.92
64544;BME280;50936;51.660;5.616;2023-10-19T13:06:00;98732.34;;;26.24;41.82
64544;BME280;50936;51.660;5.616;2023-10-19T13:08:51;98716.25;;;26.21;41.90
64544;BME280;50936;51.660;5.616;2023-10-19T13:11:39;98726.31;;;26.27;41.82
64544;BME280;50936;51.660;5.616;2023-10-19T13:14:26;98718.00;;;26.27;41.70
64544;BME280;50936;51.660;5.616;2023-10-19T13:17:14;98718.84;;;26.27;41.69
64544;BME280;50936;51.660;5.616;2023-10-19T13:20:01;98716.06;;;26.27;41.83
64544;BME280;50936;51.660;5.616;2023-10-19T13:23:06;98715.25;;;26.27;41.75
64544;BME280;50936;51.660;5.616;2023-10-19T13:25:59;98711.34;;;26.28;41.45
64544;BME280;50936;51.660;5.616;2023-10-19T13:29:02;98698.63;;;26.27;41.67
64544;BME280;50936;51.660;5.616;2023-10-19T13:31:50;98700.84;;;26.25;41.95
64544;BME280;50936;51.660;5.616;2023-10-19T13:34:39;98691.41;;;26.26;41.88
64544;BME280;50936;51.660;5.616;2023-10-19T13:37:27;98693.63;;;26.24;41.70
64544;BME280;50936;51.660;5.616;2023-10-19T13:40:18;98694.69;;;26.23;41.69
64544;BME280;50936;51.660;5.616;2023-10-19T13:43:07;98698.31;;;26.23;41.64
64544;BME280;50936;51.660;5.616;2023-10-19T13:46:00;98684.75;;;26.22;41.59
64544;BME280;50936;51.660;5.616;2023-10-19T13:48:48;98686.94;;;26.20;41.90
64544;BME280;50936;51.660;5.616;2023-10-19T13:51:36;98688.59;;;26.21;41.66
64544;BME280;50936;51.660;5.616;2023-10-19T13:54:23;98688.59;;;26.21;41.65
64544;BME280;50936;51.660;5.616;2023-10-19T13:57:10;98685.00;;;26.20;41.78
64544;BME280;50936;51.660;5.616;2023-10-19T13:59:57;98688.59;;;26.21;41.79
64544;BME280;50936;51.660;5.616;2023-10-19T14:02:45;98681.16;;;26.21;41.93
64544;BME280;50936;51.660;5.616;2023-10-19T14:05:38;98682.50;;;26.19;41.97
64544;BME280;50936;51.660;5.616;2023-10-19T14:08:26;98683.63;;;26.23;41.81
64544;BME280;50936;51.660;5.616;2023-10-19T14:11:13;98680.88;;;26.23;41.91
64544;BME280;50936;51.660;5.616;2023-10-19T14:14:01;98682.56;;;26.24;41.74
64544;BME280;50936;51.660;5.616;2023-10-19T14:16:48;98677.03;;;26.24;41.84
64544;BME280;50936;51.660;5.616;2023-10-19T14:19:38;98680.94;;;26.28;41.74
64544;BME280;50936;51.660;5.616;2023-10-19T14:22:31;98670.97;;;26.27;41.81
64544;BME280;50936;51.660;5.616;2023-10-19T14:25:22;98668.78;;;26.29;41.91
64544;BME280;50936;51.660;5.616;2023-10-19T14:28:10;98653.81;;;26.30;41.99
64544;BME280;50936;51.660;5.616;2023-10-19T14:30:57;98640.00;;;26.30;41.72
64544;BME280;50936;51.660;5.616;2023-10-19T14:33:44;98633.38;;;26.31;41.85
64544;BME280;50936;51.660;5.616;2023-10-19T14:36:31;98629.50;;;26.32;41.64
64544;BME280;50936;51.660;5.616;2023-10-19T14:39:19;98634.75;;;26.34;41.72
64544;BME280;50936;51.660;5.616;2023-10-19T14:42:07;98626.47;;;26.34;41.57
64544;BME280;50936;51.660;5.616;2023-10-19T14:44:55;98615.66;;;26.32;41.65
64544;BME280;50936;51.660;5.616;2023-10-19T14:47:47;98602.94;;;26.31;41.66
64544;BME280;50936;51.660;5.616;2023-10-19T14:50:35;98597.41;;;26.31;41.55
64544;BME280;50936;51.660;5.616;2023-10-19T14:53:24;98581.88;;;26.30;41.60
64544;BME280;50936;51.660;5.616;2023-10-19T14:56:12;98576.91;;;26.27;41.63
64544;BME280;50936;51.660;5.616;2023-10-19T14:58:59;98569.69;;;26.26;41.80
64544;BME280;50936;51.660;5.616;2023-10-19T15:01:46;98567.47;;;26.28;41.78
64544;BME280;50936;51.660;5.616;2023-10-19T15:04:34;98568.03;;;26.25;41.74
64544;BME280;50936;51.660;5.616;2023-10-19T15:07:25;98560.81;;;26.24;42.15